sensor_id;sensor_type;location;lat;lon;timestamp;P1;durP1;ratioP1;P2;durP2;ratioP2
33190;SDS011;19554;42.652;23.364;2023-04-01T00:01:53;26.98;;;11.90;;
33190;SDS011;19554;42.652;23.364;2023-04-01T00:04:19;28.13;;;12.00;;
33190;SDS011;19554;42.652;23.364;2023-04-01T00:06:45;25.13;;;11.40;;
33190;SDS011;19554;42.652;23.364;2023-04-01T00:09:12;28.25;;;13.65;;
33190;SDS011;19554;42.652;23.364;2023-04-01T00:11:38;21.80;;;11.05;;
33190;SDS011;19554;42.652;23.364;2023-04-01T00:14:04;20.20;;;10.52;;
33190;SDS011;19554;42.652;23.364;2023-04-01T00:16:29;22.35;;;10.45;;
33190;SDS011;19554;42.652;23.364;2023-04-01T00:18:55;20.80;;;9.50;;
33190;SDS011;19554;42.652;23.364;2023-04-01T00:21:21;20.23;;;9.93;;
33190;SDS011;19554;42.652;23.364;2023-04-01T00:23:47;24.70;;;10.68;;
33190;SDS011;19554;42.652;23.364;2023-04-01T00:26:14;22.20;;;10.00;;
33190;SDS011;19554;42.652;23.364;2023-04-01T00:28:42;22.70;;;10.68;;
33190;SDS011;19554;42.652;23.364;2023-04-01T00:31:08;21.08;;;9.98;;
33190;SDS011;19554;42.652;23.364;2023-04-01T00:33:35;16.73;;;8.77;;
33190;SDS011;19554;42.652;23.364;2023-04-01T00:38:33;19.42;;;10.10;;
33190;SDS011;19554;42.652;23.364;2023-04-01T00:40:59;18.10;;;10.00;;
33190;SDS011;19554;42.652;23.364;2023-04-01T00:43:25;23.65;;;10.38;;
33190;SDS011;19554;42.652;23.364;2023-04-01T00:45:50;23.75;;;9.52;;
33190;SDS011;19554;42.652;23.364;2023-04-01T00:48:20;22.65;;;9.75;;
33190;SDS011;19554;42.652;23.364;2023-04-01T00:50:55;15.32;;;9.32;;
33190;SDS011;19554;42.652;23.364;2023-04-01T00:53:26;18.73;;;10.13;;
33190;SDS011;19554;42.652;23.364;2023-04-01T00:58:40;19.00;;;9.93;;
33190;SDS011;19554;42.652;23.364;2023-04-01T01:01:09;21.48;;;9.65;;
33190;SDS011;19554;42.652;23.364;2023-04-01T01:03:35;15.00;;;8.75;;
33190;SDS011;19554;42.652;23.364;2023-04-01T01:06:11;18.48;;;9.43;;
33190;SDS011;19554;42.652;23.364;2023-04-01T01:12:10;17.75;;;9.32;;
33190;SDS011;19554;42.652;23.364;2023-04-01T01:17:02;21.30;;;8.73;;
33190;SDS011;19554;42.652;23.364;2023-04-01T01:22:56;11.90;;;6.90;;
33190;SDS011;19554;42.652;23.364;2023-04-01T01:25:51;11.65;;;6.63;;
33190;SDS011;19554;42.652;23.364;2023-04-01T01:31:23;19.38;;;7.63;;
33190;SDS011;19554;42.652;23.364;2023-04-01T01:36:50;17.30;;;7.53;;
33190;SDS011;19554;42.652;23.364;2023-04-01T01:39:24;10.80;;;5.78;;
33190;SDS011;19554;42.652;23.364;2023-04-01T01:41:55;14.90;;;6.03;;
33190;SDS011;19554;42.652;23.364;2023-04-01T01:44:22;11.70;;;5.10;;
33190;SDS011;19554;42.652;23.364;2023-04-01T01:46:51;15.07;;;6.57;;
33190;SDS011;19554;42.652;23.364;2023-04-01T01:49:17;13.00;;;6.68;;
33190;SDS011;19554;42.652;23.364;2023-04-01T01:51:44;17.20;;;6.65;;
33190;SDS011;19554;42.652;23.364;2023-04-01T01:54:13;11.10;;;5.22;;
33190;SDS011;19554;42.652;23.364;2023-04-01T01:56:41;14.25;;;6.20;;
33190;SDS011;19554;42.652;23.364;2023-04-01T01:59:10;10.93;;;5.60;;
33190;SDS011;19554;42.652;23.364;2023-04-01T02:01:39;12.45;;;5.15;;
33190;SDS011;19554;42.652;23.364;2023-04-01T02:04:09;11.43;;;6.10;;
33190;SDS011;19554;42.652;23.364;2023-04-01T02:06:37;14.07;;;4.90;;
33190;SDS011;19554;42.652;23.364;2023-04-01T02:09:08;16.10;;;5.80;;
33190;SDS011;19554;42.652;23.364;2023-04-01T02:14:19;12.57;;;5.03;;
33190;SDS011;19554;42.652;23.364;2023-04-01T02:16:57;10.35;;;4.95;;
33190;SDS011;19554;42.652;23.364;2023-04-01T02:19:32;10.77;;;5.17;;
33190;SDS011;19554;42.652;23.364;2023-04-01T02:22:03;12.90;;;5.50;;
33190;SDS011;19554;42.652;23.364;2023-04-01T02:24:31;12.48;;;4.93;;
33190;SDS011;19554;42.652;23.364;2023-04-01T02:27:00;11.82;;;4.80;;
33190;SDS011;19554;42.652;23.364;2023-04-01T02:29:26;18.92;;;5.18;;
33190;SDS011;19554;42.652;23.364;2023-04-01T02:31:52;13.25;;;4.82;;
33190;SDS011;19554;42.652;23.364;2023-04-01T02:34:20;12.15;;;4.80;;
33190;SDS011;19554;42.652;23.364;2023-04-01T02:36:47;11.85;;;4.43;;
33190;SDS011;19554;42.652;23.364;2023-04-01T02:39:14;11.57;;;4.70;;
33190;SDS011;19554;42.652;23.364;2023-04-01T02:41:41;9.88;;;4.97;;
33190;SDS011;19554;42.652;23.364;2023-04-01T02:44:08;9.63;;;5.32;;
33190;SDS011;19554;42.652;23.364;2023-04-01T02:46:34;16.88;;;5.97;;
33190;SDS011;19554;42.652;23.364;2023-04-01T02:49:00;13.85;;;5.40;;
33190;SDS011;19554;42.652;23.364;2023-04-01T02:51:25;15.68;;;4.78;;
33190;SDS011;19554;42.652;23.364;2023-04-01T02:53:51;11.00;;;5.05;;
33190;SDS011;19554;42.652;23.364;2023-04-01T02:56:16;18.35;;;5.35;;
33190;SDS011;19554;42.652;23.364;2023-04-01T02:58:42;12.45;;;5.97;;
33190;SDS011;19554;42.652;23.364;2023-04-01T03:01:07;11.35;;;4.95;;
33190;SDS011;19554;42.652;23.364;2023-04-01T03:03:33;14.80;;;5.50;;
33190;SDS011;19554;42.652;23.364;2023-04-01T03:06:04;14.40;;;5.30;;
33190;SDS011;19554;42.652;23.364;2023-04-01T03:08:33;10.50;;;5.60;;
33190;SDS011;19554;42.652;23.364;2023-04-01T03:10:59;12.90;;;5.43;;
33190;SDS011;19554;42.652;23.364;2023-04-01T03:13:24;17.88;;;6.28;;
33190;SDS011;19554;42.652;23.364;2023-04-01T03:15:50;11.85;;;5.90;;
33190;SDS011;19554;42.652;23.364;2023-04-01T03:18:16;17.15;;;6.72;;
33190;SDS011;19554;42.652;23.364;2023-04-01T03:20:41;14.73;;;6.50;;
33190;SDS011;19554;42.652;23.364;2023-04-01T03:23:07;13.18;;;6.63;;
33190;SDS011;19554;42.652;23.364;2023-04-01T03:25:33;15.45;;;6.32;;
33190;SDS011;19554;42.652;23.364;2023-04-01T03:27:58;16.38;;;6.57;;
33190;SDS011;19554;42.652;23.364;2023-04-01T03:30:24;12.23;;;5.65;;
33190;SDS011;19554;42.652;23.364;2023-04-01T03:32:50;17.75;;;6.50;;
33190;SDS011;19554;42.652;23.364;2023-04-01T03:35:16;17.33;;;6.60;;
33190;SDS011;19554;42.652;23.364;2023-04-01T03:37:41;16.85;;;6.78;;
33190;SDS011;19554;42.652;23.364;2023-04-01T03:40:07;13.82;;;6.13;;
33190;SDS011;19554;42.652;23.364;2023-04-01T03:42:33;21.83;;;6.80;;
33190;SDS011;19554;42.652;23.364;2023-04-01T03:44:58;16.30;;;6.63;;
33190;SDS011;19554;42.652;23.364;2023-04-01T03:47:23;11.63;;;5.60;;
33190;SDS011;19554;42.652;23.364;2023-04-01T03:49:49;13.18;;;6.55;;
33190;SDS011;19554;42.652;23.364;2023-04-01T03:52:14;18.63;;;6.72;;
33190;SDS011;19554;42.652;23.364;2023-04-01T03:54:40;18.23;;;7.15;;
33190;SDS011;19554;42.652;23.364;2023-04-01T03:57:05;16.48;;;6.28;;
33190;SDS011;19554;42.652;23.364;2023-04-01T03:59:31;16.20;;;7.50;;
33190;SDS011;19554;42.652;23.364;2023-04-01T04:01:56;14.50;;;6.57;;
33190;SDS011;19554;42.652;23.364;2023-04-01T04:04:22;13.32;;;6.18;;
33190;SDS011;19554;42.652;23.364;2023-04-01T04:06:47;11.25;;;6.20;;
33190;SDS011;19554;42.652;23.364;2023-04-01T04:09:13;24.92;;;7.15;;
33190;SDS011;19554;42.652;23.364;2023-04-01T04:11:38;15.32;;;7.80;;
33190;SDS011;19554;42.652;23.364;2023-04-01T04:14:04;16.85;;;8.13;;
33190;SDS011;19554;42.652;23.364;2023-04-01T04:16:29;18.20;;;8.57;;
33190;SDS011;19554;42.652;23.364;2023-04-01T04:18:55;13.90;;;6.25;;
33190;SDS011;19554;42.652;23.364;2023-04-01T04:21:20;13.98;;;7.20;;
33190;SDS011;19554;42.652;23.364;2023-04-01T04:23:45;21.60;;;7.20;;
33190;SDS011;19554;42.652;23.364;2023-04-01T04:26:11;17.80;;;8.27;;
33190;SDS011;19554;42.652;23.364;2023-04-01T04:28:39;14.55;;;7.18;;
33190;SDS011;19554;42.652;23.364;2023-04-01T04:31:05;16.98;;;6.88;;
33190;SDS011;19554;42.652;23.364;2023-04-01T04:33:31;19.23;;;7.65;;
33190;SDS011;19554;42.652;23.364;2023-04-01T04:35:57;14.95;;;6.45;;
33190;SDS011;19554;42.652;23.364;2023-04-01T04:38:24;14.85;;;6.07;;
33190;SDS011;19554;42.652;23.364;2023-04-01T04:40:50;18.15;;;6.38;;
33190;SDS011;19554;42.652;23.364;2023-04-01T04:43:16;14.07;;;5.10;;
33190;SDS011;19554;42.652;23.364;2023-04-01T04:45:43;11.95;;;5.43;;
33190;SDS011;19554;42.652;23.364;2023-04-01T04:48:09;8.90;;;4.72;;
33190;SDS011;19554;42.652;23.364;2023-04-01T04:50:39;10.95;;;5.80;;
33190;SDS011;19554;42.652;23.364;2023-04-01T04:53:05;12.60;;;4.90;;
33190;SDS011;19554;42.652;23.364;2023-04-01T04:55:30;15.75;;;5.22;;
33190;SDS011;19554;42.652;23.364;2023-04-01T04:57:56;14.65;;;5.00;;
33190;SDS011;19554;42.652;23.364;2023-04-01T05:00:21;13.18;;;5.22;;
33190;SDS011;19554;42.652;23.364;2023-04-01T05:02:47;13.30;;;5.85;;
33190;SDS011;19554;42.652;23.364;2023-04-01T05:05:12;13.30;;;5.70;;
33190;SDS011;19554;42.652;23.364;2023-04-01T05:07:37;13.07;;;5.40;;
33190;SDS011;19554;42.652;23.364;2023-04-01T05:10:03;15.00;;;6.70;;
33190;SDS011;19554;42.652;23.364;2023-04-01T05:12:29;22.05;;;7.30;;
33190;SDS011;19554;42.652;23.364;2023-04-01T05:14:54;19.13;;;7.75;;
33190;SDS011;19554;42.652;23.364;2023-04-01T05:17:20;20.63;;;8.15;;
33190;SDS011;19554;42.652;23.364;2023-04-01T05:19:45;18.65;;;7.93;;
33190;SDS011;19554;42.652;23.364;2023-04-01T05:22:11;25.70;;;9.18;;
33190;SDS011;19554;42.652;23.364;2023-04-01T05:24:36;16.65;;;8.95;;
33190;SDS011;19554;42.652;23.364;2023-04-01T05:27:01;18.30;;;7.82;;
33190;SDS011;19554;42.652;23.364;2023-04-01T05:29:27;19.38;;;9.45;;
33190;SDS011;19554;42.652;23.364;2023-04-01T05:31:53;21.15;;;8.13;;
33190;SDS011;19554;42.652;23.364;2023-04-01T05:34:18;25.90;;;8.15;;
33190;SDS011;19554;42.652;23.364;2023-04-01T05:36:44;17.80;;;7.50;;
33190;SDS011;19554;42.652;23.364;2023-04-01T05:39:09;17.45;;;7.25;;
33190;SDS011;19554;42.652;23.364;2023-04-01T05:41:35;13.18;;;6.35;;
33190;SDS011;19554;42.652;23.364;2023-04-01T05:44:01;14.20;;;6.68;;
33190;SDS011;19554;42.652;23.364;2023-04-01T05:46:27;13.80;;;7.78;;
33190;SDS011;19554;42.652;23.364;2023-04-01T05:48:52;19.42;;;9.13;;
33190;SDS011;19554;42.652;23.364;2023-04-01T05:51:18;20.48;;;9.63;;
33190;SDS011;19554;42.652;23.364;2023-04-01T05:53:43;14.00;;;7.63;;
33190;SDS011;19554;42.652;23.364;2023-04-01T05:56:09;19.92;;;7.78;;
33190;SDS011;19554;42.652;23.364;2023-04-01T05:58:35;15.60;;;7.80;;
33190;SDS011;19554;42.652;23.364;2023-04-01T06:01:05;19.85;;;7.72;;
33190;SDS011;19554;42.652;23.364;2023-04-01T06:03:32;14.93;;;8.10;;
33190;SDS011;19554;42.652;23.364;2023-04-01T06:05:58;17.73;;;7.80;;
33190;SDS011;19554;42.652;23.364;2023-04-01T06:08:26;17.63;;;6.35;;
33190;SDS011;19554;42.652;23.364;2023-04-01T06:19:24;13.97;;;6.67;;
33190;SDS011;19554;42.652;23.364;2023-04-01T06:49:25;11.98;;;7.38;;
33190;SDS011;19554;42.652;23.364;2023-04-01T06:52:20;11.88;;;8.18;;
33190;SDS011;19554;42.652;23.364;2023-04-01T06:54:48;18.30;;;8.27;;
33190;SDS011;19554;42.652;23.364;2023-04-01T06:57:34;21.50;;;9.23;;
33190;SDS011;19554;42.652;23.364;2023-04-01T07:00:12;18.92;;;7.57;;
33190;SDS011;19554;42.652;23.364;2023-04-01T07:03:10;11.38;;;6.40;;
33190;SDS011;19554;42.652;23.364;2023-04-01T07:06:04;12.73;;;6.53;;
33190;SDS011;19554;42.652;23.364;2023-04-01T07:08:33;10.70;;;6.07;;
33190;SDS011;19554;42.652;23.364;2023-04-01T07:14:22;11.15;;;6.30;;
33190;SDS011;19554;42.652;23.364;2023-04-01T07:17:14;14.65;;;6.05;;
33190;SDS011;19554;42.652;23.364;2023-04-01T07:20:42;14.68;;;6.95;;
33190;SDS011;19554;42.652;23.364;2023-04-01T07:22:52;16.00;;;7.00;;
33190;SDS011;19554;42.652;23.364;2023-04-01T07:25:23;14.85;;;6.30;;
33190;SDS011;19554;42.652;23.364;2023-04-01T07:28:26;31.85;;;6.32;;
33190;SDS011;19554;42.652;23.364;2023-04-01T07:36:14;16.80;;;6.63;;
33190;SDS011;19554;42.652;23.364;2023-04-01T07:49:17;15.00;;;7.50;;
33190;SDS011;19554;42.652;23.364;2023-04-01T07:54:44;20.50;;;7.10;;
33190;SDS011;19554;42.652;23.364;2023-04-01T08:11:57;20.20;;;7.32;;
33190;SDS011;19554;42.652;23.364;2023-04-01T08:16:46;19.60;;;6.35;;
33190;SDS011;19554;42.652;23.364;2023-04-01T08:19:43;23.05;;;7.18;;
33190;SDS011;19554;42.652;23.364;2023-04-01T08:22:29;12.93;;;5.75;;
33190;SDS011;19554;42.652;23.364;2023-04-01T08:25:00;16.35;;;6.53;;
33190;SDS011;19554;42.652;23.364;2023-04-01T08:32:55;18.75;;;6.47;;
33190;SDS011;19554;42.652;23.364;2023-04-01T08:38:05;23.00;;;5.40;;
33190;SDS011;19554;42.652;23.364;2023-04-01T08:51:11;12.70;;;5.78;;
33190;SDS011;19554;42.652;23.364;2023-04-01T09:05:12;11.82;;;5.63;;
33190;SDS011;19554;42.652;23.364;2023-04-01T09:27:43;8.47;;;4.13;;
33190;SDS011;19554;42.652;23.364;2023-04-01T09:46:06;7.40;;;3.60;;
33190;SDS011;19554;42.652;23.364;2023-04-01T09:52:00;7.75;;;3.22;;
33190;SDS011;19554;42.652;23.364;2023-04-01T09:54:50;8.60;;;3.30;;
33190;SDS011;19554;42.652;23.364;2023-04-01T10:05:52;13.15;;;3.47;;
33190;SDS011;19554;42.652;23.364;2023-04-01T10:51:33;13.13;;;5.55;;
33190;SDS011;19554;42.652;23.364;2023-04-01T11:08:08;9.95;;;2.83;;
33190;SDS011;19554;42.652;23.364;2023-04-01T11:22:29;22.08;;;3.20;;
33190;SDS011;19554;42.652;23.364;2023-04-01T11:25:48;8.55;;;2.97;;
33190;SDS011;19554;42.652;23.364;2023-04-01T11:28:07;9.48;;;3.70;;
33190;SDS011;19554;42.652;23.364;2023-04-01T11:49:36;8.52;;;2.60;;
33190;SDS011;19554;42.652;23.364;2023-04-01T11:52:25;8.50;;;2.53;;
33190;SDS011;19554;42.652;23.364;2023-04-01T12:14:14;10.35;;;3.63;;
33190;SDS011;19554;42.652;23.364;2023-04-01T12:19:48;12.18;;;3.75;;
33190;SDS011;19554;42.652;23.364;2023-04-01T12:22:31;13.95;;;3.97;;
33190;SDS011;19554;42.652;23.364;2023-04-01T12:33:18;7.22;;;3.17;;
33190;SDS011;19554;42.652;23.364;2023-04-01T12:35:54;7.85;;;3.13;;
33190;SDS011;19554;42.652;23.364;2023-04-01T12:38:48;7.55;;;3.67;;
33190;SDS011;19554;42.652;23.364;2023-04-01T12:47:38;14.00;;;5.30;;
33190;SDS011;19554;42.652;23.364;2023-04-01T12:56:18;9.07;;;4.40;;
33190;SDS011;19554;42.652;23.364;2023-04-01T12:59:04;8.07;;;4.18;;
33190;SDS011;19554;42.652;23.364;2023-04-01T13:01:40;8.75;;;4.35;;
33190;SDS011;19554;42.652;23.364;2023-04-01T13:37:31;5.75;;;2.80;;
33190;SDS011;19554;42.652;23.364;2023-04-01T13:40:25;4.70;;;2.40;;
33190;SDS011;19554;42.652;23.364;2023-04-01T13:43:19;10.30;;;3.70;;
33190;SDS011;19554;42.652;23.364;2023-04-01T13:49:19;5.95;;;3.03;;
33190;SDS011;19554;42.652;23.364;2023-04-01T13:54:53;4.70;;;2.53;;
33190;SDS011;19554;42.652;23.364;2023-04-01T13:57:34;4.88;;;2.78;;
33190;SDS011;19554;42.652;23.364;2023-04-01T14:00:16;4.88;;;2.90;;
33190;SDS011;19554;42.652;23.364;2023-04-01T14:25:03;10.80;;;5.22;;
33190;SDS011;19554;42.652;23.364;2023-04-01T14:30:27;16.17;;;5.07;;
33190;SDS011;19554;42.652;23.364;2023-04-01T14:39:07;10.23;;;4.55;;
33190;SDS011;19554;42.652;23.364;2023-04-01T14:42:31;9.90;;;4.53;;
33190;SDS011;19554;42.652;23.364;2023-04-01T14:50:29;11.52;;;3.63;;
33190;SDS011;19554;42.652;23.364;2023-04-01T14:55:33;11.13;;;3.92;;
33190;SDS011;19554;42.652;23.364;2023-04-01T15:03:26;5.28;;;3.55;;
33190;SDS011;19554;42.652;23.364;2023-04-01T15:06:10;7.35;;;3.50;;
33190;SDS011;19554;42.652;23.364;2023-04-01T15:16:55;6.63;;;4.30;;
33190;SDS011;19554;42.652;23.364;2023-04-01T15:27:51;8.77;;;4.53;;
33190;SDS011;19554;42.652;23.364;2023-04-01T15:41:14;15.75;;;5.00;;
33190;SDS011;19554;42.652;23.364;2023-04-01T15:43:49;14.45;;;5.22;;
33190;SDS011;19554;42.652;23.364;2023-04-01T16:00:31;1.83;;;1.70;;
33190;SDS011;19554;42.652;23.364;2023-04-01T16:03:15;5.65;;;2.38;;
33190;SDS011;19554;42.652;23.364;2023-04-01T16:05:55;5.68;;;2.45;;
33190;SDS011;19554;42.652;23.364;2023-04-01T16:11:19;5.70;;;3.58;;
33190;SDS011;19554;42.652;23.364;2023-04-01T16:14:12;6.63;;;3.25;;
33190;SDS011;19554;42.652;23.364;2023-04-01T16:16:53;5.60;;;4.30;;
33190;SDS011;19554;42.652;23.364;2023-04-01T16:19:39;6.88;;;4.03;;
33190;SDS011;19554;42.652;23.364;2023-04-01T16:34:56;6.60;;;4.20;;
33190;SDS011;19554;42.652;23.364;2023-04-01T16:37:33;4.57;;;3.70;;
33190;SDS011;19554;42.652;23.364;2023-04-01T16:43:04;4.85;;;4.13;;
33190;SDS011;19554;42.652;23.364;2023-04-01T16:51:17;3.97;;;2.67;;
33190;SDS011;19554;42.652;23.364;2023-04-01T16:53:48;3.50;;;2.65;;
33190;SDS011;19554;42.652;23.364;2023-04-01T16:56:21;3.90;;;3.30;;
33190;SDS011;19554;42.652;23.364;2023-04-01T17:01:20;3.38;;;2.25;;
33190;SDS011;19554;42.652;23.364;2023-04-01T17:03:51;3.90;;;2.20;;
33190;SDS011;19554;42.652;23.364;2023-04-01T17:11:34;2.88;;;2.22;;
33190;SDS011;19554;42.652;23.364;2023-04-01T17:22:49;2.65;;;1.88;;
33190;SDS011;19554;42.652;23.364;2023-04-01T17:31:02;2.53;;;1.63;;
33190;SDS011;19554;42.652;23.364;2023-04-01T17:33:57;1.70;;;1.60;;
33190;SDS011;19554;42.652;23.364;2023-04-01T17:42:36;2.03;;;1.80;;
33190;SDS011;19554;42.652;23.364;2023-04-01T18:01:30;2.42;;;2.03;;
33190;SDS011;19554;42.652;23.364;2023-04-01T18:04:14;2.88;;;2.45;;
33190;SDS011;19554;42.652;23.364;2023-04-01T18:17:23;5.60;;;4.10;;
33190;SDS011;19554;42.652;23.364;2023-04-01T18:22:45;4.80;;;3.75;;
33190;SDS011;19554;42.652;23.364;2023-04-01T18:25:22;6.40;;;4.00;;
33190;SDS011;19554;42.652;23.364;2023-04-01T18:28:14;4.38;;;3.60;;
33190;SDS011;19554;42.652;23.364;2023-04-01T18:30:41;4.38;;;3.97;;
33190;SDS011;19554;42.652;23.364;2023-04-01T18:33:56;3.58;;;3.22;;
33190;SDS011;19554;42.652;23.364;2023-04-01T18:36:15;4.78;;;3.80;;
33190;SDS011;19554;42.652;23.364;2023-04-01T18:38:49;6.22;;;3.78;;
33190;SDS011;19554;42.652;23.364;2023-04-01T18:41:35;5.65;;;4.20;;
33190;SDS011;19554;42.652;23.364;2023-04-01T18:44:22;4.05;;;3.35;;
33190;SDS011;19554;42.652;23.364;2023-04-01T18:49:39;5.18;;;3.72;;
33190;SDS011;19554;42.652;23.364;2023-04-01T18:52:33;3.92;;;3.20;;
33190;SDS011;19554;42.652;23.364;2023-04-01T18:57:41;4.05;;;3.08;;
33190;SDS011;19554;42.652;23.364;2023-04-01T19:05:56;3.92;;;3.00;;
33190;SDS011;19554;42.652;23.364;2023-04-01T19:08:27;3.60;;;2.83;;
33190;SDS011;19554;42.652;23.364;2023-04-01T19:28:41;2.67;;;2.40;;
33190;SDS011;19554;42.652;23.364;2023-04-01T19:30:53;3.25;;;2.40;;
33190;SDS011;19554;42.652;23.364;2023-04-01T19:33:25;3.40;;;2.70;;
33190;SDS011;19554;42.652;23.364;2023-04-01T19:38:38;3.00;;;2.22;;
33190;SDS011;19554;42.652;23.364;2023-04-01T19:41:12;2.42;;;1.95;;
33190;SDS011;19554;42.652;23.364;2023-04-01T19:43:55;2.05;;;1.85;;
33190;SDS011;19554;42.652;23.364;2023-04-01T19:46:33;1.63;;;1.52;;
33190;SDS011;19554;42.652;23.364;2023-04-01T20:00:07;2.25;;;2.10;;
33190;SDS011;19554;42.652;23.364;2023-04-01T20:05:38;1.90;;;1.70;;
33190;SDS011;19554;42.652;23.364;2023-04-01T20:08:12;5.78;;;2.00;;
33190;SDS011;19554;42.652;23.364;2023-04-01T20:13:56;2.28;;;2.00;;
33190;SDS011;19554;42.652;23.364;2023-04-01T20:16:21;3.03;;;2.40;;
33190;SDS011;19554;42.652;23.364;2023-04-01T20:18:59;4.70;;;2.38;;
33190;SDS011;19554;42.652;23.364;2023-04-01T20:21:32;2.63;;;2.33;;
33190;SDS011;19554;42.652;23.364;2023-04-01T20:24:04;2.42;;;1.83;;
33190;SDS011;19554;42.652;23.364;2023-04-01T20:26:43;2.72;;;1.92;;
33190;SDS011;19554;42.652;23.364;2023-04-01T20:31:54;2.92;;;2.00;;
33190;SDS011;19554;42.652;23.364;2023-04-01T20:51:14;1.85;;;1.70;;
33190;SDS011;19554;42.652;23.364;2023-04-01T20:53:43;2.08;;;1.88;;
33190;SDS011;19554;42.652;23.364;2023-04-01T20:59:58;2.47;;;1.83;;
33190;SDS011;19554;42.652;23.364;2023-04-01T21:19:25;3.33;;;2.20;;
33190;SDS011;19554;42.652;23.364;2023-04-01T21:30:15;3.88;;;2.35;;
33190;SDS011;19554;42.652;23.364;2023-04-01T21:38:03;2.38;;;1.38;;
33190;SDS011;19554;42.652;23.364;2023-04-01T21:40:37;2.38;;;1.70;;
33190;SDS011;19554;42.652;23.364;2023-04-01T21:52:28;2.78;;;1.60;;
33190;SDS011;19554;42.652;23.364;2023-04-01T21:55:08;3.15;;;1.52;;
33190;SDS011;19554;42.652;23.364;2023-04-01T22:06:48;2.90;;;1.80;;
33190;SDS011;19554;42.652;23.364;2023-04-01T22:09:39;8.57;;;2.25;;
33190;SDS011;19554;42.652;23.364;2023-04-01T22:12:15;3.05;;;2.08;;
33190;SDS011;19554;42.652;23.364;2023-04-01T22:25:47;2.88;;;1.58;;
33190;SDS011;19554;42.652;23.364;2023-04-01T22:28:51;4.90;;;1.80;;
33190;SDS011;19554;42.652;23.364;2023-04-01T22:31:23;1.92;;;1.63;;
33190;SDS011;19554;42.652;23.364;2023-04-01T22:34:00;1.83;;;1.35;;
33190;SDS011;19554;42.652;23.364;2023-04-01T22:36:36;4.50;;;1.80;;
33190;SDS011;19554;42.652;23.364;2023-04-01T22:47:57;2.03;;;1.40;;
33190;SDS011;19554;42.652;23.364;2023-04-01T22:50:30;2.90;;;1.33;;
33190;SDS011;19554;42.652;23.364;2023-04-01T22:53:27;2.38;;;1.40;;
33190;SDS011;19554;42.652;23.364;2023-04-01T22:55:57;1.98;;;1.23;;
33190;SDS011;19554;42.652;23.364;2023-04-01T22:58:30;1.55;;;0.80;;
33190;SDS011;19554;42.652;23.364;2023-04-01T23:00:59;2.05;;;0.95;;
33190;SDS011;19554;42.652;23.364;2023-04-01T23:03:38;1.48;;;1.00;;
33190;SDS011;19554;42.652;23.364;2023-04-01T23:06:05;2.08;;;0.90;;
33190;SDS011;19554;42.652;23.364;2023-04-01T23:11:14;2.40;;;1.13;;
33190;SDS011;19554;42.652;23.364;2023-04-01T23:13:53;1.65;;;1.10;;
33190;SDS011;19554;42.652;23.364;2023-04-01T23:16:43;1.27;;;0.80;;
33190;SDS011;19554;42.652;23.364;2023-04-01T23:19:29;2.78;;;1.27;;
33190;SDS011;19554;42.652;23.364;2023-04-01T23:29:46;1.75;;;1.00;;
33190;SDS011;19554;42.652;23.364;2023-04-01T23:32:15;0.68;;;0.68;;
33190;SDS011;19554;42.652;23.364;2023-04-01T23:34:47;1.67;;;1.00;;
33190;SDS011;19554;42.652;23.364;2023-04-01T23:37:14;1.75;;;0.77;;
33190;SDS011;19554;42.652;23.364;2023-04-01T23:39:43;1.48;;;0.65;;
33190;SDS011;19554;42.652;23.364;2023-04-01T23:44:53;2.55;;;0.70;;
33190;SDS011;19554;42.652;23.364;2023-04-01T23:47:25;1.38;;;1.00;;
33190;SDS011;19554;42.652;23.364;2023-04-01T23:49:59;1.00;;;0.90;;
33190;SDS011;19554;42.652;23.364;2023-04-01T23:52:34;7.03;;;0.52;;
33190;SDS011;19554;42.652;23.364;2023-04-01T23:55:24;1.20;;;0.77;;
33190;SDS011;19554;42.652;23.364;2023-04-01T23:58:38;1.30;;;0.80;;
